Terminal Aerodrome Forecast
Issued by NWS Sterling, VA

Current Version | Previous Version | Graphics & Text | Print | Product List | Glossary On
Versions: 1 2 3 4 5 6 7 8 9 10 11 12 13 14 15 16 17 18 19 20 21 22 23 24
000
FTUS41 KLWX 260500
TAFDCA
TAF
KDCA 260537Z 2606/2706 01005KT P6SM -RA BKN090 OVC150
     FM261000 02009KT P6SM -RA OVC045
     FM261200 02010KT 3SM RA OVC008
     FM261500 02011KT 2SM RASN OVC003
     FM261800 35012KT 2SM -RASN OVC003
     FM262000 33012KT 2SM -RASN OVC008
     FM262300 32011KT P6SM OVC008
     FM270400 31006KT P6SM BKN045=

USA.gov is the U.S. government's official web portal to all federal, state and local government web resources and services.